sensor_id;sensor_type;location;lat;lon;timestamp;P1;durP1;ratioP1;P2;durP2;ratioP2
58294;SDS011;45705;55.592;37.460;2023-02-14T00:01:48;7.18;;;2.15;;
58294;SDS011;45705;55.592;37.460;2023-02-14T00:04:15;4.40;;;1.80;;
58294;SDS011;45705;55.592;37.460;2023-02-14T00:06:42;5.20;;;1.67;;
58294;SDS011;45705;55.592;37.460;2023-02-14T00:09:12;4.55;;;1.90;;
58294;SDS011;45705;55.592;37.460;2023-02-14T00:11:40;3.92;;;1.90;;
58294;SDS011;45705;55.592;37.460;2023-02-14T00:14:06;5.47;;;1.90;;
58294;SDS011;45705;55.592;37.460;2023-02-14T00:16:50;4.60;;;2.00;;
58294;SDS011;45705;55.592;37.460;2023-02-14T00:19:16;6.47;;;2.25;;
58294;SDS011;45705;55.592;37.460;2023-02-14T00:21:43;5.68;;;1.77;;
58294;SDS011;45705;55.592;37.460;2023-02-14T00:24:11;4.07;;;2.08;;
58294;SDS011;45705;55.592;37.460;2023-02-14T00:26:39;2.22;;;1.65;;
58294;SDS011;45705;55.592;37.460;2023-02-14T00:29:07;4.65;;;2.03;;
58294;SDS011;45705;55.592;37.460;2023-02-14T00:31:35;4.68;;;2.08;;
58294;SDS011;45705;55.592;37.460;2023-02-14T00:34:03;3.00;;;2.00;;
58294;SDS011;45705;55.592;37.460;2023-02-14T00:36:30;5.38;;;1.65;;
58294;SDS011;45705;55.592;37.460;2023-02-14T00:38:56;5.43;;;1.80;;
58294;SDS011;45705;55.592;37.460;2023-02-14T00:41:21;5.35;;;1.73;;
58294;SDS011;45705;55.592;37.460;2023-02-14T00:43:50;5.85;;;1.80;;
58294;SDS011;45705;55.592;37.460;2023-02-14T00:46:17;6.00;;;1.80;;
58294;SDS011;45705;55.592;37.460;2023-02-14T00:48:45;4.70;;;1.70;;
58294;SDS011;45705;55.592;37.460;2023-02-14T00:51:11;4.35;;;1.70;;
58294;SDS011;45705;55.592;37.460;2023-02-14T00:53:37;3.90;;;1.65;;
58294;SDS011;45705;55.592;37.460;2023-02-14T00:56:04;4.50;;;1.52;;
58294;SDS011;45705;55.592;37.460;2023-02-14T00:58:30;6.20;;;1.55;;
58294;SDS011;45705;55.592;37.460;2023-02-14T01:00:56;3.85;;;1.77;;
58294;SDS011;45705;55.592;37.460;2023-02-14T01:03:22;6.13;;;1.80;;
58294;SDS011;45705;55.592;37.460;2023-02-14T01:05:49;6.88;;;2.63;;
58294;SDS011;45705;55.592;37.460;2023-02-14T01:08:16;5.88;;;1.80;;
58294;SDS011;45705;55.592;37.460;2023-02-14T01:10:42;4.35;;;2.00;;
58294;SDS011;45705;55.592;37.460;2023-02-14T01:13:08;5.70;;;1.70;;
58294;SDS011;45705;55.592;37.460;2023-02-14T01:15:38;7.38;;;2.40;;
58294;SDS011;45705;55.592;37.460;2023-02-14T01:18:09;5.75;;;1.65;;
58294;SDS011;45705;55.592;37.460;2023-02-14T01:23:45;6.35;;;2.13;;
58294;SDS011;45705;55.592;37.460;2023-02-14T01:26:12;5.13;;;1.90;;
58294;SDS011;45705;55.592;37.460;2023-02-14T01:28:38;5.13;;;1.92;;
58294;SDS011;45705;55.592;37.460;2023-02-14T01:31:04;5.72;;;2.15;;
58294;SDS011;45705;55.592;37.460;2023-02-14T01:33:34;4.22;;;2.72;;
58294;SDS011;45705;55.592;37.460;2023-02-14T01:36:00;8.13;;;2.13;;
58294;SDS011;45705;55.592;37.460;2023-02-14T01:38:26;5.55;;;1.92;;
58294;SDS011;45705;55.592;37.460;2023-02-14T01:40:51;4.55;;;1.63;;
58294;SDS011;45705;55.592;37.460;2023-02-14T01:43:17;4.05;;;1.92;;
58294;SDS011;45705;55.592;37.460;2023-02-14T01:45:43;4.57;;;2.08;;
58294;SDS011;45705;55.592;37.460;2023-02-14T01:48:09;7.05;;;1.90;;
58294;SDS011;45705;55.592;37.460;2023-02-14T01:50:35;5.38;;;1.80;;
58294;SDS011;45705;55.592;37.460;2023-02-14T01:53:15;5.50;;;2.10;;
58294;SDS011;45705;55.592;37.460;2023-02-14T01:55:45;6.38;;;1.90;;
58294;SDS011;45705;55.592;37.460;2023-02-14T01:58:23;6.60;;;2.25;;
58294;SDS011;45705;55.592;37.460;2023-02-14T02:00:53;5.50;;;2.40;;
58294;SDS011;45705;55.592;37.460;2023-02-14T02:03:25;5.10;;;2.65;;
58294;SDS011;45705;55.592;37.460;2023-02-14T02:05:56;4.25;;;2.17;;
58294;SDS011;45705;55.592;37.460;2023-02-14T02:08:28;6.68;;;2.25;;
58294;SDS011;45705;55.592;37.460;2023-02-14T02:10:54;2.95;;;2.10;;
58294;SDS011;45705;55.592;37.460;2023-02-14T02:13:20;8.18;;;2.10;;
58294;SDS011;45705;55.592;37.460;2023-02-14T02:27:20;4.85;;;2.38;;
58294;SDS011;45705;55.592;37.460;2023-02-14T02:44:00;4.32;;;2.38;;
58294;SDS011;45705;55.592;37.460;2023-02-14T02:52:37;5.25;;;1.70;;
58294;SDS011;45705;55.592;37.460;2023-02-14T02:58:23;4.68;;;1.98;;
58294;SDS011;45705;55.592;37.460;2023-02-14T03:00:54;7.82;;;2.15;;
58294;SDS011;45705;55.592;37.460;2023-02-14T03:03:22;4.63;;;2.10;;
58294;SDS011;45705;55.592;37.460;2023-02-14T03:06:08;6.10;;;2.20;;
58294;SDS011;45705;55.592;37.460;2023-02-14T03:08:35;4.97;;;2.08;;
58294;SDS011;45705;55.592;37.460;2023-02-14T03:11:00;5.82;;;2.13;;
58294;SDS011;45705;55.592;37.460;2023-02-14T03:16:32;5.30;;;2.33;;
58294;SDS011;45705;55.592;37.460;2023-02-14T03:19:09;6.90;;;2.20;;
58294;SDS011;45705;55.592;37.460;2023-02-14T03:22:02;5.95;;;2.40;;
58294;SDS011;45705;55.592;37.460;2023-02-14T03:30:31;3.67;;;2.35;;
58294;SDS011;45705;55.592;37.460;2023-02-14T03:33:02;5.88;;;2.40;;
58294;SDS011;45705;55.592;37.460;2023-02-14T03:38:32;4.70;;;2.70;;
58294;SDS011;45705;55.592;37.460;2023-02-14T03:41:03;5.22;;;2.90;;
58294;SDS011;45705;55.592;37.460;2023-02-14T03:46:10;5.55;;;2.72;;
58294;SDS011;45705;55.592;37.460;2023-02-14T03:48:51;6.65;;;3.10;;
58294;SDS011;45705;55.592;37.460;2023-02-14T03:51:21;4.50;;;2.60;;
58294;SDS011;45705;55.592;37.460;2023-02-14T03:53:49;8.07;;;3.33;;
58294;SDS011;45705;55.592;37.460;2023-02-14T03:56:37;9.07;;;3.35;;
58294;SDS011;45705;55.592;37.460;2023-02-14T03:59:13;3.60;;;2.83;;
58294;SDS011;45705;55.592;37.460;2023-02-14T04:01:44;7.07;;;2.55;;
58294;SDS011;45705;55.592;37.460;2023-02-14T04:04:15;4.75;;;2.20;;
58294;SDS011;45705;55.592;37.460;2023-02-14T04:06:44;7.03;;;2.42;;
58294;SDS011;45705;55.592;37.460;2023-02-14T04:09:10;3.53;;;2.42;;
58294;SDS011;45705;55.592;37.460;2023-02-14T04:11:35;5.00;;;2.72;;
58294;SDS011;45705;55.592;37.460;2023-02-14T04:14:03;5.47;;;3.00;;
58294;SDS011;45705;55.592;37.460;2023-02-14T04:16:29;6.88;;;3.00;;
58294;SDS011;45705;55.592;37.460;2023-02-14T04:18:55;4.13;;;2.42;;
58294;SDS011;45705;55.592;37.460;2023-02-14T04:21:39;6.28;;;2.75;;
58294;SDS011;45705;55.592;37.460;2023-02-14T04:24:06;5.80;;;2.30;;
58294;SDS011;45705;55.592;37.460;2023-02-14T04:26:32;4.40;;;2.30;;
58294;SDS011;45705;55.592;37.460;2023-02-14T04:28:57;3.22;;;2.05;;
58294;SDS011;45705;55.592;37.460;2023-02-14T04:31:23;6.25;;;1.95;;
58294;SDS011;45705;55.592;37.460;2023-02-14T04:33:49;2.67;;;1.83;;
58294;SDS011;45705;55.592;37.460;2023-02-14T04:36:15;4.18;;;2.00;;
58294;SDS011;45705;55.592;37.460;2023-02-14T04:38:41;3.22;;;1.75;;
58294;SDS011;45705;55.592;37.460;2023-02-14T04:41:07;2.70;;;1.83;;
58294;SDS011;45705;55.592;37.460;2023-02-14T04:43:32;5.55;;;1.88;;
58294;SDS011;45705;55.592;37.460;2023-02-14T04:45:58;6.68;;;3.78;;
58294;SDS011;45705;55.592;37.460;2023-02-14T04:48:24;2.53;;;1.60;;
58294;SDS011;45705;55.592;37.460;2023-02-14T04:50:53;3.35;;;1.67;;
58294;SDS011;45705;55.592;37.460;2023-02-14T04:53:19;2.20;;;1.88;;
58294;SDS011;45705;55.592;37.460;2023-02-14T04:55:49;3.45;;;2.00;;
58294;SDS011;45705;55.592;37.460;2023-02-14T04:58:15;2.60;;;1.65;;
58294;SDS011;45705;55.592;37.460;2023-02-14T05:00:41;2.65;;;1.65;;
58294;SDS011;45705;55.592;37.460;2023-02-14T05:03:06;2.13;;;1.70;;
58294;SDS011;45705;55.592;37.460;2023-02-14T05:05:32;2.50;;;1.40;;
58294;SDS011;45705;55.592;37.460;2023-02-14T05:07:58;5.00;;;2.00;;
58294;SDS011;45705;55.592;37.460;2023-02-14T05:10:23;2.83;;;1.55;;
58294;SDS011;45705;55.592;37.460;2023-02-14T05:12:49;3.17;;;1.63;;
58294;SDS011;45705;55.592;37.460;2023-02-14T05:15:15;3.63;;;1.75;;
58294;SDS011;45705;55.592;37.460;2023-02-14T05:17:40;3.63;;;1.63;;
58294;SDS011;45705;55.592;37.460;2023-02-14T05:20:06;2.10;;;1.33;;
58294;SDS011;45705;55.592;37.460;2023-02-14T05:22:32;2.92;;;2.03;;
58294;SDS011;45705;55.592;37.460;2023-02-14T05:24:58;3.90;;;1.67;;
58294;SDS011;45705;55.592;37.460;2023-02-14T05:27:24;5.90;;;2.17;;
58294;SDS011;45705;55.592;37.460;2023-02-14T05:29:49;3.00;;;1.70;;
58294;SDS011;45705;55.592;37.460;2023-02-14T05:32:15;7.63;;;4.57;;
58294;SDS011;45705;55.592;37.460;2023-02-14T05:34:41;3.97;;;2.15;;
58294;SDS011;45705;55.592;37.460;2023-02-14T05:37:06;5.28;;;2.08;;
58294;SDS011;45705;55.592;37.460;2023-02-14T05:39:32;3.58;;;2.35;;
58294;SDS011;45705;55.592;37.460;2023-02-14T05:41:58;3.10;;;1.98;;
58294;SDS011;45705;55.592;37.460;2023-02-14T05:44:23;4.63;;;2.47;;
58294;SDS011;45705;55.592;37.460;2023-02-14T05:46:49;6.20;;;2.75;;
58294;SDS011;45705;55.592;37.460;2023-02-14T05:49:15;7.05;;;2.03;;
58294;SDS011;45705;55.592;37.460;2023-02-14T05:51:40;5.03;;;2.65;;
58294;SDS011;45705;55.592;37.460;2023-02-14T05:54:06;4.40;;;2.58;;
58294;SDS011;45705;55.592;37.460;2023-02-14T05:56:32;4.28;;;2.65;;
58294;SDS011;45705;55.592;37.460;2023-02-14T05:58:57;5.10;;;2.50;;
58294;SDS011;45705;55.592;37.460;2023-02-14T06:01:23;4.80;;;2.63;;
58294;SDS011;45705;55.592;37.460;2023-02-14T06:03:49;6.47;;;3.40;;
58294;SDS011;45705;55.592;37.460;2023-02-14T06:06:14;6.18;;;3.45;;
58294;SDS011;45705;55.592;37.460;2023-02-14T06:08:40;5.50;;;3.33;;
58294;SDS011;45705;55.592;37.460;2023-02-14T06:11:06;5.57;;;2.88;;
58294;SDS011;45705;55.592;37.460;2023-02-14T06:13:31;4.82;;;2.20;;
58294;SDS011;45705;55.592;37.460;2023-02-14T06:15:57;6.75;;;2.40;;
58294;SDS011;45705;55.592;37.460;2023-02-14T06:18:22;3.72;;;2.40;;
58294;SDS011;45705;55.592;37.460;2023-02-14T06:20:52;5.68;;;2.55;;
58294;SDS011;45705;55.592;37.460;2023-02-14T06:23:19;4.82;;;2.97;;
58294;SDS011;45705;55.592;37.460;2023-02-14T06:25:44;6.40;;;3.50;;
58294;SDS011;45705;55.592;37.460;2023-02-14T06:28:10;4.57;;;2.80;;
58294;SDS011;45705;55.592;37.460;2023-02-14T06:30:36;3.47;;;2.72;;
58294;SDS011;45705;55.592;37.460;2023-02-14T06:33:01;4.40;;;2.40;;
58294;SDS011;45705;55.592;37.460;2023-02-14T06:35:27;5.45;;;2.50;;
58294;SDS011;45705;55.592;37.460;2023-02-14T06:37:53;4.72;;;2.33;;
58294;SDS011;45705;55.592;37.460;2023-02-14T06:40:19;7.40;;;2.53;;
58294;SDS011;45705;55.592;37.460;2023-02-14T06:42:44;5.78;;;2.05;;
58294;SDS011;45705;55.592;37.460;2023-02-14T06:45:10;3.35;;;2.38;;
58294;SDS011;45705;55.592;37.460;2023-02-14T06:47:36;5.53;;;2.75;;
58294;SDS011;45705;55.592;37.460;2023-02-14T06:50:02;7.57;;;2.70;;
58294;SDS011;45705;55.592;37.460;2023-02-14T06:52:30;4.30;;;2.50;;
58294;SDS011;45705;55.592;37.460;2023-02-14T06:54:59;3.97;;;2.63;;
58294;SDS011;45705;55.592;37.460;2023-02-14T06:57:24;6.43;;;2.65;;
58294;SDS011;45705;55.592;37.460;2023-02-14T06:59:50;5.80;;;3.20;;
58294;SDS011;45705;55.592;37.460;2023-02-14T07:02:16;4.97;;;2.50;;
58294;SDS011;45705;55.592;37.460;2023-02-14T07:04:41;7.55;;;3.15;;
58294;SDS011;45705;55.592;37.460;2023-02-14T07:07:07;7.28;;;3.22;;
58294;SDS011;45705;55.592;37.460;2023-02-14T07:09:33;7.32;;;2.97;;
58294;SDS011;45705;55.592;37.460;2023-02-14T07:11:58;2.95;;;2.40;;
58294;SDS011;45705;55.592;37.460;2023-02-14T07:14:24;8.93;;;3.00;;
58294;SDS011;45705;55.592;37.460;2023-02-14T07:16:50;6.25;;;2.55;;
58294;SDS011;45705;55.592;37.460;2023-02-14T07:19:16;7.43;;;2.83;;
58294;SDS011;45705;55.592;37.460;2023-02-14T07:21:41;4.13;;;3.00;;
58294;SDS011;45705;55.592;37.460;2023-02-14T07:24:07;5.55;;;2.60;;
58294;SDS011;45705;55.592;37.460;2023-02-14T07:26:33;4.97;;;2.50;;
58294;SDS011;45705;55.592;37.460;2023-02-14T07:28:58;5.30;;;2.50;;
58294;SDS011;45705;55.592;37.460;2023-02-14T07:31:24;3.30;;;2.50;;
58294;SDS011;45705;55.592;37.460;2023-02-14T07:33:50;3.95;;;2.70;;
58294;SDS011;45705;55.592;37.460;2023-02-14T07:36:16;4.30;;;2.30;;
58294;SDS011;45705;55.592;37.460;2023-02-14T07:38:42;4.30;;;2.90;;
58294;SDS011;45705;55.592;37.460;2023-02-14T07:41:08;5.00;;;2.60;;
58294;SDS011;45705;55.592;37.460;2023-02-14T07:43:33;4.25;;;2.65;;
58294;SDS011;45705;55.592;37.460;2023-02-14T07:46:00;4.82;;;2.65;;
58294;SDS011;45705;55.592;37.460;2023-02-14T07:48:26;5.18;;;2.30;;
58294;SDS011;45705;55.592;37.460;2023-02-14T07:50:52;6.93;;;2.50;;
58294;SDS011;45705;55.592;37.460;2023-02-14T07:53:21;3.47;;;2.53;;
58294;SDS011;45705;55.592;37.460;2023-02-14T07:55:50;4.60;;;2.50;;
58294;SDS011;45705;55.592;37.460;2023-02-14T07:58:16;4.57;;;2.78;;
58294;SDS011;45705;55.592;37.460;2023-02-14T08:00:42;5.03;;;2.80;;
58294;SDS011;45705;55.592;37.460;2023-02-14T08:03:08;6.13;;;2.80;;
58294;SDS011;45705;55.592;37.460;2023-02-14T08:05:34;3.20;;;2.60;;
58294;SDS011;45705;55.592;37.460;2023-02-14T08:08:00;4.47;;;3.17;;
58294;SDS011;45705;55.592;37.460;2023-02-14T08:10:26;3.78;;;2.72;;
58294;SDS011;45705;55.592;37.460;2023-02-14T08:12:51;3.08;;;2.30;;
58294;SDS011;45705;55.592;37.460;2023-02-14T08:15:30;5.53;;;2.28;;
58294;SDS011;45705;55.592;37.460;2023-02-14T08:18:16;5.85;;;2.35;;
58294;SDS011;45705;55.592;37.460;2023-02-14T08:20:44;7.25;;;2.78;;
58294;SDS011;45705;55.592;37.460;2023-02-14T08:23:10;5.80;;;3.30;;
58294;SDS011;45705;55.592;37.460;2023-02-14T08:25:36;10.07;;;4.13;;
58294;SDS011;45705;55.592;37.460;2023-02-14T08:28:02;13.35;;;3.65;;
58294;SDS011;45705;55.592;37.460;2023-02-14T08:30:28;10.65;;;3.90;;
58294;SDS011;45705;55.592;37.460;2023-02-14T08:32:55;10.60;;;4.70;;
58294;SDS011;45705;55.592;37.460;2023-02-14T08:35:20;4.70;;;2.50;;
58294;SDS011;45705;55.592;37.460;2023-02-14T08:37:46;7.18;;;2.20;;
58294;SDS011;45705;55.592;37.460;2023-02-14T08:40:12;3.38;;;2.35;;
58294;SDS011;45705;55.592;37.460;2023-02-14T08:42:38;4.47;;;2.90;;
58294;SDS011;45705;55.592;37.460;2023-02-14T08:45:04;10.50;;;4.05;;
58294;SDS011;45705;55.592;37.460;2023-02-14T08:47:30;9.98;;;3.75;;
58294;SDS011;45705;55.592;37.460;2023-02-14T08:50:00;7.18;;;3.50;;
58294;SDS011;45705;55.592;37.460;2023-02-14T08:52:29;9.20;;;3.05;;
58294;SDS011;45705;55.592;37.460;2023-02-14T08:54:55;9.77;;;3.75;;
58294;SDS011;45705;55.592;37.460;2023-02-14T08:57:21;3.40;;;2.70;;
58294;SDS011;45705;55.592;37.460;2023-02-14T08:59:47;7.93;;;3.38;;
58294;SDS011;45705;55.592;37.460;2023-02-14T09:02:13;7.30;;;3.65;;
58294;SDS011;45705;55.592;37.460;2023-02-14T09:04:40;5.32;;;3.35;;
58294;SDS011;45705;55.592;37.460;2023-02-14T09:07:06;4.03;;;2.35;;
58294;SDS011;45705;55.592;37.460;2023-02-14T09:09:32;6.18;;;2.28;;
58294;SDS011;45705;55.592;37.460;2023-02-14T09:12:01;5.30;;;2.42;;
58294;SDS011;45705;55.592;37.460;2023-02-14T09:14:28;6.88;;;3.15;;
58294;SDS011;45705;55.592;37.460;2023-02-14T09:16:54;4.88;;;2.30;;
58294;SDS011;45705;55.592;37.460;2023-02-14T09:19:19;3.63;;;1.83;;
58294;SDS011;45705;55.592;37.460;2023-02-14T09:21:45;7.22;;;2.65;;
58294;SDS011;45705;55.592;37.460;2023-02-14T09:24:11;3.05;;;2.00;;
58294;SDS011;45705;55.592;37.460;2023-02-14T09:26:37;6.30;;;2.97;;
58294;SDS011;45705;55.592;37.460;2023-02-14T09:29:05;14.60;;;5.15;;
58294;SDS011;45705;55.592;37.460;2023-02-14T09:31:30;8.85;;;4.97;;
58294;SDS011;45705;55.592;37.460;2023-02-14T09:33:56;8.30;;;4.65;;
58294;SDS011;45705;55.592;37.460;2023-02-14T09:36:22;7.55;;;3.70;;
58294;SDS011;45705;55.592;37.460;2023-02-14T09:39:06;8.30;;;3.63;;
58294;SDS011;45705;55.592;37.460;2023-02-14T09:44:22;6.35;;;2.60;;
58294;SDS011;45705;55.592;37.460;2023-02-14T09:49:40;5.43;;;2.08;;
58294;SDS011;45705;55.592;37.460;2023-02-14T09:52:09;2.40;;;1.90;;
58294;SDS011;45705;55.592;37.460;2023-02-14T09:54:37;6.43;;;2.17;;
58294;SDS011;45705;55.592;37.460;2023-02-14T10:05:53;9.05;;;2.50;;
58294;SDS011;45705;55.592;37.460;2023-02-14T10:08:57;5.72;;;3.10;;
58294;SDS011;45705;55.592;37.460;2023-02-14T10:11:27;3.65;;;2.03;;
58294;SDS011;45705;55.592;37.460;2023-02-14T10:16:37;5.50;;;2.47;;
58294;SDS011;45705;55.592;37.460;2023-02-14T10:19:27;6.20;;;2.30;;
58294;SDS011;45705;55.592;37.460;2023-02-14T10:22:03;6.60;;;3.33;;
58294;SDS011;45705;55.592;37.460;2023-02-14T10:24:56;2.88;;;1.95;;
58294;SDS011;45705;55.592;37.460;2023-02-14T10:27:39;4.90;;;2.22;;
58294;SDS011;45705;55.592;37.460;2023-02-14T10:32:49;6.63;;;2.60;;
58294;SDS011;45705;55.592;37.460;2023-02-14T10:46:36;5.10;;;2.38;;
58294;SDS011;45705;55.592;37.460;2023-02-14T10:54:17;5.65;;;2.00;;
58294;SDS011;45705;55.592;37.460;2023-02-14T10:59:28;9.18;;;2.65;;
58294;SDS011;45705;55.592;37.460;2023-02-14T11:01:59;4.93;;;3.10;;
58294;SDS011;45705;55.592;37.460;2023-02-14T11:04:26;4.30;;;2.50;;
58294;SDS011;45705;55.592;37.460;2023-02-14T11:06:54;7.18;;;2.17;;
58294;SDS011;45705;55.592;37.460;2023-02-14T11:09:19;4.43;;;2.00;;
58294;SDS011;45705;55.592;37.460;2023-02-14T11:11:47;5.93;;;2.08;;
58294;SDS011;45705;55.592;37.460;2023-02-14T11:16:46;3.78;;;2.60;;
58294;SDS011;45705;55.592;37.460;2023-02-14T11:21:53;3.45;;;1.90;;
58294;SDS011;45705;55.592;37.460;2023-02-14T11:24:29;4.63;;;2.08;;
58294;SDS011;45705;55.592;37.460;2023-02-14T11:27:01;5.40;;;2.50;;
58294;SDS011;45705;55.592;37.460;2023-02-14T11:29:28;6.13;;;2.88;;
58294;SDS011;45705;55.592;37.460;2023-02-14T11:31:54;8.80;;;3.97;;
58294;SDS011;45705;55.592;37.460;2023-02-14T11:36:53;7.85;;;3.28;;
58294;SDS011;45705;55.592;37.460;2023-02-14T11:39:31;7.55;;;3.13;;
58294;SDS011;45705;55.592;37.460;2023-02-14T11:42:03;6.97;;;3.60;;
58294;SDS011;45705;55.592;37.460;2023-02-14T11:44:30;4.78;;;3.38;;
58294;SDS011;45705;55.592;37.460;2023-02-14T11:47:17;5.82;;;3.47;;
58294;SDS011;45705;55.592;37.460;2023-02-14T11:49:55;7.32;;;3.78;;
58294;SDS011;45705;55.592;37.460;2023-02-14T11:52:36;7.85;;;3.15;;
58294;SDS011;45705;55.592;37.460;2023-02-14T11:55:48;5.80;;;2.95;;
58294;SDS011;45705;55.592;37.460;2023-02-14T11:58:07;7.07;;;3.03;;
58294;SDS011;45705;55.592;37.460;2023-02-14T12:00:51;4.55;;;2.90;;
58294;SDS011;45705;55.592;37.460;2023-02-14T12:03:18;6.53;;;2.60;;
58294;SDS011;45705;55.592;37.460;2023-02-14T12:05:46;3.72;;;2.25;;
58294;SDS011;45705;55.592;37.460;2023-02-14T12:08:14;4.35;;;2.60;;
58294;SDS011;45705;55.592;37.460;2023-02-14T12:10:59;6.57;;;2.30;;
58294;SDS011;45705;55.592;37.460;2023-02-14T12:13:27;4.20;;;2.55;;
58294;SDS011;45705;55.592;37.460;2023-02-14T12:15:54;2.33;;;1.70;;
58294;SDS011;45705;55.592;37.460;2023-02-14T12:23:41;3.03;;;1.70;;
58294;SDS011;45705;55.592;37.460;2023-02-14T12:26:32;4.03;;;1.73;;
58294;SDS011;45705;55.592;37.460;2023-02-14T12:29:05;2.85;;;1.90;;
58294;SDS011;45705;55.592;37.460;2023-02-14T12:31:39;4.15;;;2.85;;
58294;SDS011;45705;55.592;37.460;2023-02-14T12:34:08;6.70;;;2.08;;
58294;SDS011;45705;55.592;37.460;2023-02-14T12:45:02;5.95;;;2.42;;
58294;SDS011;45705;55.592;37.460;2023-02-14T12:53:10;7.60;;;3.72;;
58294;SDS011;45705;55.592;37.460;2023-02-14T12:55:51;9.02;;;4.57;;
58294;SDS011;45705;55.592;37.460;2023-02-14T13:04:04;7.00;;;3.58;;
58294;SDS011;45705;55.592;37.460;2023-02-14T13:06:51;8.77;;;4.75;;
58294;SDS011;45705;55.592;37.460;2023-02-14T13:09:35;9.27;;;4.20;;
58294;SDS011;45705;55.592;37.460;2023-02-14T13:15:18;6.18;;;2.90;;
58294;SDS011;45705;55.592;37.460;2023-02-14T13:18:02;5.25;;;2.30;;
58294;SDS011;45705;55.592;37.460;2023-02-14T13:23:19;5.85;;;3.35;;
58294;SDS011;45705;55.592;37.460;2023-02-14T13:25:55;4.68;;;2.50;;
58294;SDS011;45705;55.592;37.460;2023-02-14T13:28:25;4.15;;;2.65;;
58294;SDS011;45705;55.592;37.460;2023-02-14T13:30:54;6.18;;;2.50;;
58294;SDS011;45705;55.592;37.460;2023-02-14T13:33:24;4.10;;;2.00;;
58294;SDS011;45705;55.592;37.460;2023-02-14T13:36:06;5.65;;;2.33;;
58294;SDS011;45705;55.592;37.460;2023-02-14T13:38:37;8.60;;;2.45;;
58294;SDS011;45705;55.592;37.460;2023-02-14T13:41:11;3.88;;;2.38;;
58294;SDS011;45705;55.592;37.460;2023-02-14T13:48:57;2.45;;;1.80;;
58294;SDS011;45705;55.592;37.460;2023-02-14T13:54:27;2.60;;;1.45;;
58294;SDS011;45705;55.592;37.460;2023-02-14T13:56:54;3.63;;;1.75;;
58294;SDS011;45705;55.592;37.460;2023-02-14T13:59:28;3.75;;;1.67;;
58294;SDS011;45705;55.592;37.460;2023-02-14T14:04:52;6.18;;;2.08;;
58294;SDS011;45705;55.592;37.460;2023-02-14T14:07:23;3.38;;;1.60;;
58294;SDS011;45705;55.592;37.460;2023-02-14T14:09:55;3.03;;;1.80;;
58294;SDS011;45705;55.592;37.460;2023-02-14T14:22:46;5.80;;;3.10;;
58294;SDS011;45705;55.592;37.460;2023-02-14T14:25:12;5.47;;;2.10;;
58294;SDS011;45705;55.592;37.460;2023-02-14T14:27:41;4.55;;;1.80;;
58294;SDS011;45705;55.592;37.460;2023-02-14T14:30:22;3.50;;;2.10;;
58294;SDS011;45705;55.592;37.460;2023-02-14T14:32:51;4.70;;;2.00;;
58294;SDS011;45705;55.592;37.460;2023-02-14T14:35:18;3.88;;;1.33;;
58294;SDS011;45705;55.592;37.460;2023-02-14T14:37:47;3.63;;;2.22;;
58294;SDS011;45705;55.592;37.460;2023-02-14T14:40:22;3.92;;;1.15;;
58294;SDS011;45705;55.592;37.460;2023-02-14T14:42:54;1.92;;;1.52;;
58294;SDS011;45705;55.592;37.460;2023-02-14T14:45:25;3.60;;;1.20;;
58294;SDS011;45705;55.592;37.460;2023-02-14T14:48:06;1.70;;;1.23;;
58294;SDS011;45705;55.592;37.460;2023-02-14T14:50:36;4.10;;;1.60;;
58294;SDS011;45705;55.592;37.460;2023-02-14T14:53:05;5.22;;;2.42;;
58294;SDS011;45705;55.592;37.460;2023-02-14T14:55:36;6.38;;;3.00;;
58294;SDS011;45705;55.592;37.460;2023-02-14T14:58:04;17.52;;;9.57;;
58294;SDS011;45705;55.592;37.460;2023-02-14T15:00:50;14.93;;;7.03;;
58294;SDS011;45705;55.592;37.460;2023-02-14T15:03:19;3.78;;;1.70;;
58294;SDS011;45705;55.592;37.460;2023-02-14T15:05:49;6.55;;;2.55;;
58294;SDS011;45705;55.592;37.460;2023-02-14T15:10:42;3.28;;;1.77;;
58294;SDS011;45705;55.592;37.460;2023-02-14T15:13:12;2.10;;;1.63;;
58294;SDS011;45705;55.592;37.460;2023-02-14T15:15:57;4.40;;;1.70;;
58294;SDS011;45705;55.592;37.460;2023-02-14T15:18:24;3.65;;;1.30;;
58294;SDS011;45705;55.592;37.460;2023-02-14T15:20:50;5.85;;;1.90;;
58294;SDS011;45705;55.592;37.460;2023-02-14T15:23:17;2.95;;;2.20;;
58294;SDS011;45705;55.592;37.460;2023-02-14T15:25:46;3.33;;;1.30;;
58294;SDS011;45705;55.592;37.460;2023-02-14T15:30:54;6.00;;;2.80;;
58294;SDS011;45705;55.592;37.460;2023-02-14T15:33:24;3.45;;;1.92;;
58294;SDS011;45705;55.592;37.460;2023-02-14T15:35:51;3.38;;;2.10;;
58294;SDS011;45705;55.592;37.460;2023-02-14T15:38:17;10.45;;;3.20;;
58294;SDS011;45705;55.592;37.460;2023-02-14T15:40:46;10.00;;;4.10;;
58294;SDS011;45705;55.592;37.460;2023-02-14T15:45:40;7.00;;;3.50;;
58294;SDS011;45705;55.592;37.460;2023-02-14T15:48:17;6.18;;;3.55;;
58294;SDS011;45705;55.592;37.460;2023-02-14T15:50:48;6.78;;;3.60;;
58294;SDS011;45705;55.592;37.460;2023-02-14T15:56:01;8.38;;;3.20;;
58294;SDS011;45705;55.592;37.460;2023-02-14T15:58:30;2.83;;;2.20;;
58294;SDS011;45705;55.592;37.460;2023-02-14T16:00:59;4.65;;;2.22;;
58294;SDS011;45705;55.592;37.460;2023-02-14T16:03:27;7.40;;;2.60;;
58294;SDS011;45705;55.592;37.460;2023-02-14T16:05:58;5.00;;;2.40;;
58294;SDS011;45705;55.592;37.460;2023-02-14T16:13:34;4.22;;;2.85;;
58294;SDS011;45705;55.592;37.460;2023-02-14T16:16:05;18.77;;;3.83;;
58294;SDS011;45705;55.592;37.460;2023-02-14T16:21:09;6.45;;;3.25;;
58294;SDS011;45705;55.592;37.460;2023-02-14T16:23:37;4.05;;;2.80;;
58294;SDS011;45705;55.592;37.460;2023-02-14T16:26:06;6.63;;;2.80;;
58294;SDS011;45705;55.592;37.460;2023-02-14T16:28:32;3.40;;;2.55;;
58294;SDS011;45705;55.592;37.460;2023-02-14T16:31:01;4.85;;;2.60;;
58294;SDS011;45705;55.592;37.460;2023-02-14T16:33:32;5.35;;;3.00;;
58294;SDS011;45705;55.592;37.460;2023-02-14T16:36:02;5.32;;;2.47;;
58294;SDS011;45705;55.592;37.460;2023-02-14T16:38:32;3.58;;;2.30;;
58294;SDS011;45705;55.592;37.460;2023-02-14T16:41:05;8.48;;;3.13;;
58294;SDS011;45705;55.592;37.460;2023-02-14T16:43:31;5.75;;;3.13;;
58294;SDS011;45705;55.592;37.460;2023-02-14T16:45:57;4.60;;;2.78;;
58294;SDS011;45705;55.592;37.460;2023-02-14T16:48:22;7.50;;;2.25;;
58294;SDS011;45705;55.592;37.460;2023-02-14T16:50:48;5.25;;;2.63;;
58294;SDS011;45705;55.592;37.460;2023-02-14T16:53:26;8.15;;;2.47;;
58294;SDS011;45705;55.592;37.460;2023-02-14T16:55:53;5.10;;;2.97;;
58294;SDS011;45705;55.592;37.460;2023-02-14T16:58:22;6.00;;;2.70;;
58294;SDS011;45705;55.592;37.460;2023-02-14T17:00:51;7.10;;;3.17;;
58294;SDS011;45705;55.592;37.460;2023-02-14T17:03:16;8.20;;;3.78;;
58294;SDS011;45705;55.592;37.460;2023-02-14T17:05:42;6.10;;;3.45;;
58294;SDS011;45705;55.592;37.460;2023-02-14T17:08:10;6.45;;;4.00;;
58294;SDS011;45705;55.592;37.460;2023-02-14T17:10:38;6.82;;;3.67;;
58294;SDS011;45705;55.592;37.460;2023-02-14T17:13:06;7.82;;;4.05;;
58294;SDS011;45705;55.592;37.460;2023-02-14T17:15:33;6.82;;;3.42;;
58294;SDS011;45705;55.592;37.460;2023-02-14T17:18:02;6.03;;;3.03;;
58294;SDS011;45705;55.592;37.460;2023-02-14T17:20:33;5.45;;;2.72;;
58294;SDS011;45705;55.592;37.460;2023-02-14T17:22:59;7.05;;;2.75;;
58294;SDS011;45705;55.592;37.460;2023-02-14T17:25:25;9.55;;;3.83;;
58294;SDS011;45705;55.592;37.460;2023-02-14T17:27:50;5.90;;;3.20;;
58294;SDS011;45705;55.592;37.460;2023-02-14T17:30:16;7.57;;;3.72;;
58294;SDS011;45705;55.592;37.460;2023-02-14T17:32:42;6.65;;;3.03;;
58294;SDS011;45705;55.592;37.460;2023-02-14T17:35:08;7.70;;;2.85;;